Time;durP1;ratioP1;P1;durP2;ratioP2;P2;SDS_P1;SDS_P2;PMS_P1;PMS_P2;Temp;Humidity;BMP_temperature;BMP_pressure;BME280_temperature;BME280_humidity;BME280_pressure;Samples;Min_cycle;Max_cycle;Signal;HPM_P1;HPM_P2
2021/05/05 00:02:32;;;;;;;6.72;2.78;;;;;;;;;;6247247;28;20873;-71
2021/05/05 00:05:34;;;;;;;3.17;2.15;;;;;;;;;;6248637;28;20057;-71
2021/05/05 00:08:36;;;;;;;8.10;2.55;;;;;;;;;;6247018;28;20055;-71
2021/05/05 00:11:37;;;;;;;4.88;2.67;;;;;;;;;;6256222;28;20041;-71
2021/05/05 00:14:38;;;;;;;4.15;2.67;;;;;;;;;;6253406;28;20053;-71
2021/05/05 00:17:39;;;;;;;4.63;2.83;;;;;;;;;;6254512;28;20689;-72
2021/05/05 00:20:41;;;;;;;4.28;2.85;;;;;;;;;;6261226;28;20640;-75
2021/05/05 00:23:53;;;;;;;6.40;3.00;;;;;;;;;;6257830;28;20049;-75
2021/05/05 00:26:54;;;;;;;5.28;2.38;;;;;;;;;;6261902;28;20049;-75
2021/05/05 00:29:56;;;;;;;4.13;2.72;;;;;;;;;;6261665;28;20159;-74
2021/05/05 00:32:58;;;;;;;5.10;3.00;;;;;;;;;;6266144;28;20148;-73
2021/05/05 00:36:00;;;;;;;5.00;2.92;;;;;;;;;;6263923;28;20135;-74
2021/05/05 00:39:02;;;;;;;4.32;3.00;;;;;;;;;;6266445;28;20466;-73
2021/05/05 00:42:04;;;;;;;4.07;2.67;;;;;;;;;;6262327;28;20112;-74
2021/05/05 00:45:08;;;;;;;6.63;2.90;;;;;;;;;;6256409;28;20095;-73
2021/05/05 00:48:09;;;;;;;5.45;2.60;;;;;;;;;;6260693;28;20419;-73
2021/05/05 00:51:11;;;;;;;5.13;2.70;;;;;;;;;;6257839;28;20048;-72
2021/05/05 00:54:12;;;;;;;4.13;2.85;;;;;;;;;;6255785;28;20191;-73
2021/05/05 00:57:14;;;;;;;3.65;2.63;;;;;;;;;;6258240;28;20175;-72
2021/05/05 01:00:17;;;;;;;4.95;2.70;;;;;;;;;;6256629;28;20524;-74
2021/05/05 01:03:19;;;;;;;7.53;2.83;;;;;;;;;;6493994;22;21009;-72
2021/05/05 01:06:21;;;;;;;5.82;2.63;;;;;;;;;;6257433;28;20144;-71
2021/05/05 01:09:22;;;;;;;5.78;2.92;;;;;;;;;;6264783;28;20592;-70
2021/05/05 01:12:23;;;;;;;4.85;2.63;;;;;;;;;;6260074;28;20037;-71
2021/05/05 01:15:24;;;;;;;4.68;2.80;;;;;;;;;;6261891;28;20068;-72
2021/05/05 01:18:25;;;;;;;4.40;2.58;;;;;;;;;;6261542;28;20049;-72
2021/05/05 01:21:27;;;;;;;5.63;2.80;;;;;;;;;;6260227;28;20084;-70
2021/05/05 01:24:28;;;;;;;4.47;3.03;;;;;;;;;;6258947;28;20141;-71
2021/05/05 01:27:29;;;;;;;5.10;2.60;;;;;;;;;;6259320;28;20063;-73
2021/05/05 01:30:31;;;;;;;4.15;2.60;;;;;;;;;;6261320;28;20526;-72
2021/05/05 01:33:32;;;;;;;4.95;2.95;;;;;;;;;;6260451;28;20680;-72
2021/05/05 01:36:36;;;;;;;4.55;3.10;;;;;;;;;;6263280;28;20081;-72
2021/05/05 01:39:37;;;;;;;3.70;3.05;;;;;;;;;;6265495;28;20144;-71
2021/05/05 01:42:39;;;;;;;4.72;2.67;;;;;;;;;;6269637;28;20136;-72
2021/05/05 01:45:40;;;;;;;7.35;3.33;;;;;;;;;;6264880;28;20518;-72
2021/05/05 01:48:41;;;;;;;3.92;2.97;;;;;;;;;;6261010;28;20555;-72
2021/05/05 01:51:43;;;;;;;2.90;2.55;;;;;;;;;;6264899;28;20411;-72
2021/05/05 01:54:45;;;;;;;4.90;3.00;;;;;;;;;;6261100;28;20044;-71
2021/05/05 01:57:46;;;;;;;5.68;3.22;;;;;;;;;;6260695;28;20523;-72
2021/05/05 02:00:47;;;;;;;4.00;2.80;;;;;;;;;;6258989;28;20049;-71
2021/05/05 02:03:48;;;;;;;5.20;2.92;;;;;;;;;;6261867;28;20509;-71
2021/05/05 02:06:50;;;;;;;5.72;3.30;;;;;;;;;;6248375;28;20077;-71
2021/05/05 02:09:52;;;;;;;7.85;3.15;;;;;;;;;;6240588;28;20148;-71
2021/05/05 02:12:53;;;;;;;8.48;3.42;;;;;;;;;;6241234;28;20159;-72
2021/05/05 02:15:54;;;;;;;4.40;3.05;;;;;;;;;;6243270;28;20155;-72
2021/05/05 02:18:55;;;;;;;5.07;3.22;;;;;;;;;;6237439;28;20061;-72
2021/05/05 02:21:57;;;;;;;8.05;4.15;;;;;;;;;;6244032;28;20124;-72
2021/05/05 02:24:58;;;;;;;5.32;3.20;;;;;;;;;;6222395;28;20141;-71
2021/05/05 02:27:59;;;;;;;4.65;3.05;;;;;;;;;;6224755;28;20128;-71
2021/05/05 02:31:01;;;;;;;6.18;3.60;;;;;;;;;;6238230;28;20065;-71
2021/05/05 02:34:02;;;;;;;3.88;3.15;;;;;;;;;;6245260;28;20136;-71
2021/05/05 02:37:05;;;;;;;5.57;3.83;;;;;;;;;;6240838;28;20053;-71
2021/05/05 02:40:08;;;;;;;5.60;3.20;;;;;;;;;;6241521;28;20796;-71
2021/05/05 02:43:09;;;;;;;6.18;3.60;;;;;;;;;;6239954;28;20491;-71
2021/05/05 02:46:10;;;;;;;7.15;3.80;;;;;;;;;;6240170;28;20534;-71
2021/05/05 02:49:11;;;;;;;7.10;3.55;;;;;;;;;;6240473;28;20551;-71
2021/05/05 02:52:13;;;;;;;6.65;3.85;;;;;;;;;;6239088;28;20051;-72
2021/05/05 02:55:15;;;;;;;5.57;3.63;;;;;;;;;;6246414;28;20045;-72
2021/05/05 02:58:16;;;;;;;4.93;3.45;;;;;;;;;;6243845;28;20069;-71
2021/05/05 03:01:17;;;;;;;5.28;3.22;;;;;;;;;;6242827;28;20539;-72
2021/05/05 03:04:18;;;;;;;5.72;3.45;;;;;;;;;;6245180;28;20083;-71
2021/05/05 03:07:20;;;;;;;5.47;3.17;;;;;;;;;;6239522;28;20041;-72
2021/05/05 03:10:21;;;;;;;4.13;3.05;;;;;;;;;;6238635;28;20057;-71
2021/05/05 03:13:23;;;;;;;5.20;3.60;;;;;;;;;;6238547;28;20055;-71
2021/05/05 03:16:24;;;;;;;4.97;3.13;;;;;;;;;;6234429;28;20073;-71
2021/05/05 03:19:25;;;;;;;6.43;2.97;;;;;;;;;;6218143;28;20080;-72
2021/05/05 03:22:27;;;;;;;6.10;3.63;;;;;;;;;;6221655;28;20681;-71
2021/05/05 03:25:28;;;;;;;7.88;3.45;;;;;;;;;;6225700;28;20135;-72
2021/05/05 03:28:30;;;;;;;6.53;3.42;;;;;;;;;;6245112;28;20059;-71
2021/05/05 03:31:31;;;;;;;4.70;3.13;;;;;;;;;;6233591;28;20054;-72
2021/05/05 03:34:32;;;;;;;4.25;3.45;;;;;;;;;;6232877;28;20144;-71
2021/05/05 03:37:35;;;;;;;6.03;4.32;;;;;;;;;;6235317;28;20144;-71
2021/05/05 03:40:36;;;;;;;6.03;3.75;;;;;;;;;;6236311;28;20049;-72
2021/05/05 03:43:37;;;;;;;7.97;4.07;;;;;;;;;;6236000;28;20056;-71
2021/05/05 03:46:38;;;;;;;8.18;3.95;;;;;;;;;;6240204;28;20050;-71
2021/05/05 03:49:39;;;;;;;7.53;3.80;;;;;;;;;;6247776;28;20049;-72
2021/05/05 03:52:41;;;;;;;6.28;4.03;;;;;;;;;;6231501;28;20842;-71
2021/05/05 03:55:42;;;;;;;7.45;3.38;;;;;;;;;;6238655;28;20054;-72
2021/05/05 03:58:43;;;;;;;6.45;3.65;;;;;;;;;;6232891;28;20252;-72
2021/05/05 04:01:44;;;;;;;7.43;3.60;;;;;;;;;;6220253;28;20056;-72
2021/05/05 04:04:45;;;;;;;5.75;3.50;;;;;;;;;;6225134;28;20145;-71
2021/05/05 04:07:47;;;;;;;7.47;3.47;;;;;;;;;;6223688;28;20061;-71
2021/05/05 04:10:48;;;;;;;4.20;3.08;;;;;;;;;;6220473;28;20244;-71
2021/05/05 04:13:49;;;;;;;6.55;3.30;;;;;;;;;;6225675;28;20133;-72
2021/05/05 04:16:51;;;;;;;6.22;3.33;;;;;;;;;;6220633;28;20057;-71
2021/05/05 04:19:52;;;;;;;8.82;3.10;;;;;;;;;;6222222;28;20042;-71
2021/05/05 04:22:54;;;;;;;5.28;3.63;;;;;;;;;;6216507;28;20564;-71
2021/05/05 04:25:56;;;;;;;5.38;3.30;;;;;;;;;;6225663;28;20053;-72
2021/05/05 04:28:57;;;;;;;6.25;3.13;;;;;;;;;;6235760;28;20057;-71
2021/05/05 04:31:58;;;;;;;6.30;3.33;;;;;;;;;;6223544;28;20124;-71
2021/05/05 04:34:59;;;;;;;7.20;3.40;;;;;;;;;;6216734;28;20049;-71
2021/05/05 04:38:01;;;;;;;4.97;3.17;;;;;;;;;;6220913;28;20091;-72
2021/05/05 04:41:02;;;;;;;5.47;3.30;;;;;;;;;;6222577;28;20061;-71
2021/05/05 04:44:03;;;;;;;5.13;3.45;;;;;;;;;;6229300;28;20476;-72
2021/05/05 04:47:05;;;;;;;6.10;3.63;;;;;;;;;;6230751;28;20116;-71
2021/05/05 04:50:09;;;;;;;5.43;3.80;;;;;;;;;;6242938;28;20145;-71
2021/05/05 04:53:11;;;;;;;8.88;3.88;;;;;;;;;;6239249;28;20089;-71
2021/05/05 04:56:12;;;;;;;5.47;3.53;;;;;;;;;;6240597;28;20060;-71
2021/05/05 04:59:13;;;;;;;7.53;4.20;;;;;;;;;;6236880;28;20116;-72
2021/05/05 05:02:14;;;;;;;7.82;4.57;;;;;;;;;;6223486;28;20049;-72
2021/05/05 05:05:15;;;;;;;9.98;4.65;;;;;;;;;;6229987;28;20073;-70
2021/05/05 05:08:17;;;;;;;6.28;4.30;;;;;;;;;;6244660;28;20374;-71
2021/05/05 05:11:18;;;;;;;5.75;4.20;;;;;;;;;;6245015;28;20231;-71
2021/05/05 05:14:19;;;;;;;8.98;4.13;;;;;;;;;;6244444;28;20041;-72
2021/05/05 05:17:21;;;;;;;5.47;3.58;;;;;;;;;;6237770;28;20042;-72
2021/05/05 05:20:22;;;;;;;8.65;4.00;;;;;;;;;;6249618;28;20132;-72
2021/05/05 05:23:24;;;;;;;6.00;3.72;;;;;;;;;;6241827;28;20057;-72
2021/05/05 05:26:25;;;;;;;7.55;3.85;;;;;;;;;;6244350;28;20140;-71
2021/05/05 05:29:26;;;;;;;6.82;3.38;;;;;;;;;;6239651;28;20053;-72
2021/05/05 05:32:27;;;;;;;15.38;3.75;;;;;;;;;;6236469;28;20075;-72
2021/05/05 05:35:28;;;;;;;5.28;3.20;;;;;;;;;;6232314;28;20046;-72
2021/05/05 05:38:30;;;;;;;8.40;3.65;;;;;;;;;;6228633;28;20041;-73
2021/05/05 05:41:33;;;;;;;4.38;2.83;;;;;;;;;;6228140;28;20140;-72
2021/05/05 05:44:34;;;;;;;4.70;3.10;;;;;;;;;;6225553;28;20053;-72
2021/05/05 05:47:35;;;;;;;8.45;4.07;;;;;;;;;;6232079;28;20081;-71
2021/05/05 05:50:36;;;;;;;9.10;3.13;;;;;;;;;;6240531;28;20045;-72
2021/05/05 05:53:38;;;;;;;8.73;4.03;;;;;;;;;;6242594;28;20132;-73
2021/05/05 05:56:39;;;;;;;6.45;3.53;;;;;;;;;;6256751;28;20519;-72
2021/05/05 05:59:42;;;;;;;6.70;3.47;;;;;;;;;;6236170;28;20128;-72
2021/05/05 06:02:43;;;;;;;4.95;3.33;;;;;;;;;;6226147;28;20555;-72
2021/05/05 06:05:44;;;;;;;5.15;3.78;;;;;;;;;;6235209;28;20814;-73
2021/05/05 06:08:46;;;;;;;7.60;4.10;;;;;;;;;;6232792;28;20124;-73
2021/05/05 06:11:47;;;;;;;10.95;4.43;;;;;;;;;;6240443;28;20059;-73
2021/05/05 06:14:48;;;;;;;4.78;3.03;;;;;;;;;;6234095;28;20132;-72
2021/05/05 06:17:49;;;;;;;6.63;2.90;;;;;;;;;;6228234;28;20060;-74
2021/05/05 06:20:51;;;;;;;5.57;2.78;;;;;;;;;;6236957;28;20136;-74
2021/05/05 06:23:53;;;;;;;6.25;2.85;;;;;;;;;;6240716;28;20068;-73
2021/05/05 06:26:54;;;;;;;7.30;2.97;;;;;;;;;;6236411;28;20061;-73
2021/05/05 06:29:55;;;;;;;4.95;2.45;;;;;;;;;;6227200;28;20473;-74
2021/05/05 06:32:56;;;;;;;3.08;2.47;;;;;;;;;;6241863;28;20140;-73
2021/05/05 06:35:57;;;;;;;7.88;3.42;;;;;;;;;;6233767;28;20045;-73
2021/05/05 06:38:59;;;;;;;8.15;3.15;;;;;;;;;;6223305;28;20080;-72
2021/05/05 06:42:00;;;;;;;8.73;3.20;;;;;;;;;;6225081;28;20141;-71
2021/05/05 06:45:02;;;;;;;7.88;3.15;;;;;;;;;;6224490;28;20050;-72
2021/05/05 06:48:04;;;;;;;6.18;2.67;;;;;;;;;;6227208;28;20170;-71
2021/05/05 06:51:06;;;;;;;6.28;3.00;;;;;;;;;;6236785;28;20065;-73
2021/05/05 06:54:08;;;;;;;5.45;2.83;;;;;;;;;;6235697;28;20064;-73
2021/05/05 06:57:09;;;;;;;3.95;3.00;;;;;;;;;;6239292;28;20509;-73
2021/05/05 07:00:11;;;;;;;5.45;3.40;;;;;;;;;;6227855;28;20069;-71
2021/05/05 07:03:12;;;;;;;5.80;3.00;;;;;;;;;;6226888;28;20052;-73
2021/05/05 07:06:13;;;;;;;6.60;3.80;;;;;;;;;;6227045;28;20819;-71
2021/05/05 07:09:15;;;;;;;10.45;3.42;;;;;;;;;;6236775;28;20499;-72
2021/05/05 07:12:16;;;;;;;8.00;3.28;;;;;;;;;;6235404;28;20109;-71
2021/05/05 07:15:17;;;;;;;7.75;3.25;;;;;;;;;;6238480;28;20050;-73
2021/05/05 07:18:18;;;;;;;5.15;3.30;;;;;;;;;;6222282;28;20042;-71
2021/05/05 07:21:19;;;;;;;11.10;2.97;;;;;;;;;;6230993;28;20489;-71
2021/05/05 07:24:21;;;;;;;7.43;3.50;;;;;;;;;;6232638;28;20132;-71
2021/05/05 07:27:22;;;;;;;8.68;3.42;;;;;;;;;;6234505;28;20509;-71
2021/05/05 07:30:23;;;;;;;5.30;3.38;;;;;;;;;;6232814;28;20042;-72
2021/05/05 07:33:25;;;;;;;6.65;3.58;;;;;;;;;;6224211;28;20046;-72
2021/05/05 07:36:28;;;;;;;4.60;3.53;;;;;;;;;;6221807;28;20057;-71
2021/05/05 07:46:09;;;;;;;9.70;3.00;;;;;;;;;;6235884;28;20120;-72
2021/05/05 07:49:12;;;;;;;6.20;2.80;;;;;;;;;;6230379;28;20497;-72
2021/05/05 07:52:13;;;;;;;6.57;2.77;;;;;;;;;;6243752;28;20051;-72
2021/05/05 07:55:16;;;;;;;5.28;3.20;;;;;;;;;;6241399;28;20793;-71
2021/05/05 07:58:17;;;;;;;7.00;3.80;;;;;;;;;;6240631;28;20076;-72
2021/05/05 08:01:18;;;;;;;5.10;3.10;;;;;;;;;;6223025;28;20126;-74
2021/05/05 08:04:19;;;;;;;5.97;3.30;;;;;;;;;;6230272;28;20144;-72
2021/05/05 08:07:21;;;;;;;8.65;3.20;;;;;;;;;;6238723;28;20548;-71
2021/05/05 08:10:23;;;;;;;8.27;3.60;;;;;;;;;;6239037;28;20150;-74
2021/05/05 08:13:26;;;;;;;8.60;3.28;;;;;;;;;;6237712;28;20840;-73
2021/05/05 08:16:27;;;;;;;5.80;3.57;;;;;;;;;;6237609;28;20041;-72
2021/05/05 08:19:28;;;;;;;7.15;3.42;;;;;;;;;;6235403;28;20073;-73
2021/05/05 08:22:29;;;;;;;7.50;3.72;;;;;;;;;;6235446;28;20149;-73
2021/05/05 08:25:32;;;;;;;9.57;3.90;;;;;;;;;;6224785;28;20053;-72
2021/05/05 08:28:34;;;;;;;9.88;3.30;;;;;;;;;;6242576;28;20103;-72
2021/05/05 08:31:35;;;;;;;8.15;3.42;;;;;;;;;;6234332;28;20046;-73
2021/05/05 08:34:36;;;;;;;11.43;3.50;;;;;;;;;;6235419;28;20045;-72
2021/05/05 08:37:37;;;;;;;6.43;2.90;;;;;;;;;;6237611;28;20124;-73
2021/05/05 08:40:39;;;;;;;8.70;3.22;;;;;;;;;;6230110;28;20047;-72
2021/05/05 08:43:41;;;;;;;13.05;3.53;;;;;;;;;;6228092;28;20069;-72
2021/05/05 08:46:44;;;;;;;6.30;3.05;;;;;;;;;;6231089;28;20468;-73
2021/05/05 08:49:45;;;;;;;5.22;3.30;;;;;;;;;;6254818;28;20079;-73
2021/05/05 08:52:47;;;;;;;8.23;3.15;;;;;;;;;;6251993;28;20045;-72
2021/05/05 08:55:49;;;;;;;7.60;3.55;;;;;;;;;;6255958;28;20219;-73
2021/05/05 08:58:50;;;;;;;8.07;3.28;;;;;;;;;;6251513;28;20168;-73
2021/05/05 09:01:51;;;;;;;8.23;3.33;;;;;;;;;;6253363;28;20037;-73
2021/05/05 09:04:56;;;;;;;6.97;3.13;;;;;;;;;;6252665;28;20148;-72
2021/05/05 09:08:09;;;;;;;8.43;3.55;;;;;;;;;;6258590;28;20163;-72
2021/05/05 09:11:11;;;;;;;9.43;3.60;;;;;;;;;;6251689;28;20055;-72
2021/05/05 09:14:12;;;;;;;6.72;3.13;;;;;;;;;;6251654;28;20176;-73
2021/05/05 09:17:17;;;;;;;8.27;3.42;;;;;;;;;;6252744;28;20183;-72
2021/05/05 09:20:24;;;;;;;7.57;3.55;;;;;;;;;;6254751;28;20153;-72
2021/05/05 09:23:25;;;;;;;6.28;3.55;;;;;;;;;;6250287;28;20143;-72
2021/05/05 09:26:36;;;;;;;6.40;3.60;;;;;;;;;;6255241;28;20135;-72
2021/05/05 09:29:40;;;;;;;6.38;3.70;;;;;;;;;;6262192;28;20046;-72
2021/05/05 09:32:48;;;;;;;;;;;;;;;;;;6261749;28;20135;-72
2021/05/05 09:35:53;;;;;;;7.80;3.90;;;;;;;;;;6237853;28;21499;-74
2021/05/05 09:38:54;;;;;;;8.15;3.38;;;;;;;;;;6250547;28;20160;-73
2021/05/05 09:41:56;;;;;;;6.07;3.40;;;;;;;;;;6250430;28;20072;-73
2021/05/05 09:44:59;;;;;;;6.63;2.90;;;;;;;;;;6253836;28;20038;-73
2021/05/05 09:48:00;;;;;;;6.63;3.13;;;;;;;;;;6264296;28;20381;-74
2021/05/05 09:51:02;;;;;;;8.70;2.88;;;;;;;;;;6270732;28;20048;-72
2021/05/05 09:54:04;;;;;;;8.00;2.78;;;;;;;;;;6272509;28;20151;-72
2021/05/05 09:57:15;;;;;;;7.03;2.97;;;;;;;;;;6269427;28;20149;-73
2021/05/05 10:00:17;;;;;;;8.30;3.00;;;;;;;;;;6250848;28;20166;-73
2021/05/05 10:03:34;;;;;;;5.90;2.70;;;;;;;;;;6258757;28;20051;-73
2021/05/05 10:06:37;;;;;;;5.75;2.55;;;;;;;;;;6258865;28;20155;-72
2021/05/05 10:09:38;;;;;;;6.23;2.53;;;;;;;;;;6266414;28;20153;-72
2021/05/05 10:12:40;;;;;;;5.60;2.80;;;;;;;;;;6267669;28;20067;-72
2021/05/05 10:15:42;;;;;;;6.88;2.95;;;;;;;;;;6266588;28;20465;-71
2021/05/05 10:18:45;;;;;;;8.55;2.70;;;;;;;;;;6270660;28;20126;-72
2021/05/05 10:21:55;;;;;;;8.63;3.00;;;;;;;;;;6261343;28;20037;-72
2021/05/05 10:24:56;;;;;;;9.73;2.83;;;;;;;;;;6253196;28;20049;-74
2021/05/05 10:27:58;;;;;;;4.63;2.25;;;;;;;;;;6250782;28;20051;-71
2021/05/05 10:31:00;;;;;;;4.72;2.50;;;;;;;;;;6249559;28;20045;-74
2021/05/05 10:34:01;;;;;;;5.22;2.50;;;;;;;;;;6262706;28;20132;-72
2021/05/05 10:37:05;;;;;;;7.70;3.53;;;;;;;;;;6264173;28;20056;-72
2021/05/05 10:40:18;;;;;;;6.95;2.45;;;;;;;;;;6261870;28;20064;-72
2021/05/05 10:43:20;;;;;;;10.07;3.03;;;;;;;;;;6257991;28;20101;-71
2021/05/05 10:46:30;;;;;;;8.68;3.03;;;;;;;;;;6271138;28;20077;-71
2021/05/05 10:49:31;;;;;;;8.30;2.80;;;;;;;;;;6258009;28;20045;-72
2021/05/05 10:52:59;;;;;;;5.20;2.60;;;;;;;;;;6269819;28;20068;-72
2021/05/05 10:56:01;;;;;;;9.02;2.67;;;;;;;;;;6258171;28;20102;-70
2021/05/05 10:59:07;;;;;;;11.20;2.80;;;;;;;;;;6263719;28;20122;-72
2021/05/05 11:02:08;;;;;;;8.13;2.72;;;;;;;;;;6265567;28;20440;-73
2021/05/05 11:05:11;;;;;;;12.77;3.10;;;;;;;;;;6264861;28;20123;-72
2021/05/05 11:08:26;;;;;;;7.38;3.72;;;;;;;;;;6261780;28;20169;-76
2021/05/05 11:11:34;;;;;;;9.23;2.92;;;;;;;;;;6269821;28;20487;-73
2021/05/05 11:14:48;;;;;;;7.45;3.33;;;;;;;;;;6262836;28;20083;-72
2021/05/05 11:17:49;;;;;;;8.95;3.10;;;;;;;;;;6242788;28;20033;-76
2021/05/05 11:20:50;;;;;;;8.50;3.30;;;;;;;;;;6257898;28;20131;-74
2021/05/05 11:23:52;;;;;;;7.05;3.35;;;;;;;;;;6264007;28;20376;-76
2021/05/05 11:26:53;;;;;;;8.40;3.58;;;;;;;;;;6271666;28;20127;-72
2021/05/05 11:29:55;;;;;;;9.98;3.10;;;;;;;;;;6259950;28;20053;-72
2021/05/05 11:32:58;;;;;;;8.07;2.78;;;;;;;;;;6256168;28;20137;-76
2021/05/05 11:35:59;;;;;;;8.40;3.05;;;;;;;;;;6257904;28;20574;-71
2021/05/05 11:39:00;;;;;;;6.28;3.05;;;;;;;;;;6264606;28;20148;-74
2021/05/05 11:42:02;;;;;;;8.93;2.65;;;;;;;;;;6266672;28;20047;-76
2021/05/05 11:45:06;;;;;;;11.75;2.90;;;;;;;;;;6271298;28;20060;-72
2021/05/05 11:48:07;;;;;;;8.40;2.85;;;;;;;;;;6265482;28;20132;-74
2021/05/05 11:51:24;;;;;;;8.82;2.88;;;;;;;;;;6258575;28;20080;-74
2021/05/05 11:54:30;;;;;;;9.38;3.03;;;;;;;;;;6260474;28;20598;-73
2021/05/05 11:57:32;;;;;;;7.18;3.30;;;;;;;;;;6257916;28;20048;-74
2021/05/05 12:00:36;;;;;;;8.80;2.90;;;;;;;;;;6266107;28;20156;-74
2021/05/05 12:03:37;;;;;;;7.70;3.20;;;;;;;;;;6262152;28;20157;-73
2021/05/05 12:06:53;;;;;;;7.55;3.10;;;;;;;;;;6255424;28;20131;-75
2021/05/05 12:09:55;;;;;;;11.40;3.20;;;;;;;;;;6262383;28;20296;-73
2021/05/05 12:13:05;;;;;;;8.30;3.20;;;;;;;;;;6264221;28;20106;-75
2021/05/05 12:16:09;;;;;;;13.43;4.70;;;;;;;;;;6266160;28;20041;-72
2021/05/05 12:19:11;;;;;;;7.20;3.53;;;;;;;;;;6263263;28;20124;-72
2021/05/05 12:22:12;;;;;;;9.63;3.70;;;;;;;;;;6267951;28;20049;-73
2021/05/05 12:25:16;;;;;;;8.20;3.33;;;;;;;;;;6265226;28;20094;-75
2021/05/05 12:28:19;;;;;;;10.00;3.95;;;;;;;;;;6272033;28;20604;-74
2021/05/05 12:31:22;;;;;;;9.32;3.65;;;;;;;;;;6268040;28;20041;-74
2021/05/05 12:34:23;;;;;;;18.70;5.30;;;;;;;;;;6273811;28;20464;-75
2021/05/05 12:37:24;;;;;;;10.50;4.40;;;;;;;;;;6263357;28;20648;-73
2021/05/05 12:40:27;;;;;;;12.50;3.58;;;;;;;;;;6266458;28;20139;-74
2021/05/05 12:43:29;;;;;;;12.35;3.72;;;;;;;;;;6268655;28;20067;-74
2021/05/05 12:46:34;;;;;;;9.50;2.92;;;;;;;;;;6270068;28;20045;-74
2021/05/05 12:49:36;;;;;;;12.32;3.70;;;;;;;;;;6263618;28;20077;-73
2021/05/05 12:52:38;;;;;;;7.45;3.47;;;;;;;;;;6268780;28;20117;-74
2021/05/05 12:55:41;;;;;;;9.63;3.97;;;;;;;;;;6264500;28;20052;-73
2021/05/05 12:58:43;;;;;;;11.23;4.50;;;;;;;;;;6265129;28;20071;-74
2021/05/05 13:01:45;;;;;;;11.98;4.20;;;;;;;;;;6259851;28;20235;-74
2021/05/05 13:04:47;;;;;;;7.20;3.50;;;;;;;;;;6256158;28;20053;-72
2021/05/05 13:07:48;;;;;;;11.90;3.75;;;;;;;;;;6252546;28;20144;-74
2021/05/05 13:10:49;;;;;;;8.02;3.95;;;;;;;;;;6255476;28;20057;-72
2021/05/05 13:13:53;;;;;;;14.93;3.70;;;;;;;;;;6256149;28;20071;-73
2021/05/05 13:17:11;;;;;;;11.40;3.97;;;;;;;;;;6255585;28;20080;-76
2021/05/05 13:20:38;;;;;;;17.23;4.00;;;;;;;;;;6257431;28;20091;-73
2021/05/05 13:30:36;;;;;;;8.90;3.75;;;;;;;;;;6269172;28;20045;-73
2021/05/05 13:33:38;;;;;;;6.20;3.78;;;;;;;;;;6265162;28;20049;-73
2021/05/05 13:36:51;;;;;;;8.05;3.85;;;;;;;;;;6256871;28;20129;-76
2021/05/05 13:39:52;;;;;;;6.53;3.60;;;;;;;;;;6267258;28;20652;-75
2021/05/05 13:42:56;;;;;;;7.25;3.70;;;;;;;;;;6258924;28;20063;-75
2021/05/05 13:46:04;;;;;;;7.75;3.60;;;;;;;;;;6259760;28;20044;-75
2021/05/05 13:49:11;;;;;;;6.03;3.95;;;;;;;;;;6255520;28;20072;-78
2021/05/05 13:52:12;;;;;;;6.90;3.78;;;;;;;;;;6259065;28;20040;-75
2021/05/05 13:55:13;;;;;;;13.00;3.78;;;;;;;;;;6256831;28;20144;-70
2021/05/05 13:58:14;;;;;;;11.90;3.90;;;;;;;;;;6263695;28;20072;-72
2021/05/05 14:01:16;;;;;;;8.45;3.80;;;;;;;;;;6265535;28;20049;-75
2021/05/05 14:04:18;;;;;;;9.45;3.97;;;;;;;;;;6259153;28;20064;-74
2021/05/05 14:07:19;;;;;;;7.82;4.10;;;;;;;;;;6249825;28;20051;-74
2021/05/05 14:10:20;;;;;;;10.50;3.60;;;;;;;;;;6265172;28;20418;-72
2021/05/05 14:13:22;;;;;;;10.55;4.35;;;;;;;;;;6275439;28;20044;-73
2021/05/05 14:16:23;;;;;;;8.95;3.90;;;;;;;;;;6254062;28;20115;-75
2021/05/05 14:19:25;;;;;;;9.50;3.20;;;;;;;;;;6254173;28;20129;-76
2021/05/05 14:22:26;;;;;;;15.35;4.55;;;;;;;;;;6257127;28;20115;-77
2021/05/05 14:25:28;;;;;;;14.75;4.20;;;;;;;;;;6249390;28;20128;-75
2021/05/05 14:28:29;;;;;;;17.77;4.10;;;;;;;;;;6254838;28;20091;-74
2021/05/05 14:31:30;;;;;;;18.90;4.00;;;;;;;;;;6268383;28;20494;-73
2021/05/05 14:34:32;;;;;;;9.48;4.10;;;;;;;;;;6256612;28;20049;-73
2021/05/05 14:37:34;;;;;;;26.52;4.43;;;;;;;;;;6255016;28;20057;-75
2021/05/05 14:40:36;;;;;;;23.25;4.53;;;;;;;;;;6251201;28;20041;-74
2021/05/05 14:43:45;;;;;;;17.77;4.43;;;;;;;;;;6266763;28;20052;-73
2021/05/05 14:50:07;;;;;;;14.98;4.50;;;;;;;;;;6265345;28;20049;-73
2021/05/05 14:53:08;;;;;;;23.05;4.85;;;;;;;;;;6257447;28;20129;-73
2021/05/05 14:56:10;;;;;;;42.90;5.68;;;;;;;;;;6260556;28;20124;-73
2021/05/05 14:59:14;;;;;;;21.80;4.68;;;;;;;;;;6260373;28;20138;-74
2021/05/05 15:02:15;;;;;;;77.88;6.70;;;;;;;;;;6259382;28;20527;-74
2021/05/05 15:05:20;;;;;;;24.80;4.15;;;;;;;;;;6263192;28;20131;-74
2021/05/05 15:08:22;;;;;;;23.83;4.55;;;;;;;;;;6262912;28;20478;-73
2021/05/05 15:14:52;;;;;;;8.90;3.88;;;;;;;;;;6251658;28;20558;-73
2021/05/05 15:28:06;;;;;;;9.13;3.38;;;;;;;;;;6247855;28;20053;-74
2021/05/05 15:34:44;;;;;;;7.55;3.70;;;;;;;;;;6210754;28;20045;-74
2021/05/05 15:37:52;;;;;;;8.18;3.63;;;;;;;;;;6250590;28;20376;-74
2021/05/05 15:41:00;;;;;;;8.98;3.85;;;;;;;;;;6258152;28;20080;-74
2021/05/05 15:47:28;;;;;;;10.93;4.22;;;;;;;;;;6257963;28;20038;-74
2021/05/05 15:50:30;;;;;;;11.18;3.30;;;;;;;;;;6260303;28;20064;-74
2021/05/05 15:53:35;;;;;;;9.67;3.50;;;;;;;;;;6254253;28;20065;-76
2021/05/05 15:56:36;;;;;;;6.13;3.20;;;;;;;;;;6261374;28;20057;-74
2021/05/05 15:59:43;;;;;;;6.25;3.08;;;;;;;;;;6254377;28;20049;-73
2021/05/05 16:02:59;;;;;;;8.98;3.70;;;;;;;;;;6255001;28;20054;-74
2021/05/05 16:09:38;;;;;;;7.95;3.17;;;;;;;;;;6257986;28;20045;-73
2021/05/05 16:12:59;;;;;;;8.27;3.28;;;;;;;;;;6261614;28;20131;-75
2021/05/05 16:16:00;;;;;;;10.02;3.47;;;;;;;;;;6252390;28;20267;-73
2021/05/05 16:19:04;;;;;;;10.35;3.65;;;;;;;;;;6257068;28;20107;-73
2021/05/05 16:22:08;;;;;;;9.82;3.45;;;;;;;;;;6262316;28;20049;-73
2021/05/05 16:25:19;;;;;;;8.90;3.53;;;;;;;;;;6263865;28;20049;-75
2021/05/05 16:28:38;;;;;;;7.13;3.75;;;;;;;;;;6256207;28;20515;-74
2021/05/05 16:45:25;;;;;;;9.18;3.13;;;;;;;;;;6257205;28;20045;-76
2021/05/05 16:48:28;;;;;;;6.47;3.05;;;;;;;;;;6258243;28;20546;-74
2021/05/05 16:54:54;;;;;;;10.55;3.65;;;;;;;;;;6241597;28;20146;-73
2021/05/05 16:58:04;;;;;;;5.88;2.75;;;;;;;;;;6258935;28;20349;-73
2021/05/05 17:01:19;;;;;;;9.13;2.95;;;;;;;;;;6259725;28;20167;-73
2021/05/05 17:10:57;;;;;;;9.98;3.30;;;;;;;;;;6260833;28;20116;-73
2021/05/05 17:13:59;;;;;;;7.50;3.33;;;;;;;;;;6258487;28;20673;-73
2021/05/05 17:17:04;;;;;;;8.98;2.90;;;;;;;;;;6263702;28;20044;-74
2021/05/05 17:20:10;;;;;;;12.15;4.20;;;;;;;;;;6254934;28;20056;-74
2021/05/05 17:23:17;;;;;;;5.15;3.08;;;;;;;;;;6259414;28;20108;-72
2021/05/05 17:26:23;;;;;;;8.68;3.00;;;;;;;;;;6262830;28;20057;-75
2021/05/05 17:29:38;;;;;;;7.93;3.47;;;;;;;;;;6259545;28;20053;-74
2021/05/05 17:43:11;;;;;;;8.55;3.20;;;;;;;;;;6258659;28;20185;-74
2021/05/05 17:46:24;;;;;;;8.80;3.58;;;;;;;;;;6256230;28;20069;-75
2021/05/05 17:49:41;;;;;;;9.90;3.80;;;;;;;;;;6256915;28;20052;-73
2021/05/05 17:57:41;;;;;;;7.68;3.55;;;;;;;;;;6262967;28;20041;-72
2021/05/05 18:16:36;;;;;;;10.68;3.72;;;;;;;;;;6210110;28;20081;-73
2021/05/05 18:19:41;;;;;;;14.13;4.72;;;;;;;;;;6209260;28;20062;-75
2021/05/05 18:22:53;;;;;;;10.50;4.32;;;;;;;;;;6211890;28;20049;-71
2021/05/05 18:26:11;;;;;;;10.68;4.57;;;;;;;;;;6211000;28;20114;-73
2021/05/05 18:29:16;;;;;;;9.40;4.50;;;;;;;;;;6210887;28;20049;-71
2021/05/05 18:32:17;;;;;;;8.77;4.10;;;;;;;;;;6215126;28;20046;-71
2021/05/05 18:35:19;;;;;;;7.20;3.70;;;;;;;;;;6208359;28;20061;-70
2021/05/05 18:38:21;;;;;;;7.25;3.92;;;;;;;;;;6212219;28;20202;-73
2021/05/05 18:41:33;;;;;;;8.98;3.92;;;;;;;;;;6213397;28;20515;-71
2021/05/05 19:08:08;;;;;;;9.52;4.00;;;;;;;;;;6261987;28;20049;-74
2021/05/05 19:14:44;;;;;;;11.77;4.53;;;;;;;;;;6258010;28;20044;-72
2021/05/05 19:21:49;;;;;;;6.60;4.30;;;;;;;;;;6263765;28;20400;-73
2021/05/05 20:15:47;;;;;;;12.27;5.32;;;;;;;;;;6259145;28;20052;-75
2021/05/05 20:22:48;;;;;;;11.93;4.95;;;;;;;;;;6215245;28;20146;-71
2021/05/05 20:46:21;;;;;;;13.15;4.07;;;;;;;;;;6262430;28;20572;-73
2021/05/05 21:09:54;;;;;;;12.05;3.05;;;;;;;;;;6259092;28;20053;-72
2021/05/05 21:27:34;;;;;;;10.93;3.58;;;;;;;;;;6263512;28;20449;-73
2021/05/05 22:01:19;;;;;;;9.77;3.47;;;;;;;;;;6257529;28;20049;-72
2021/05/05 22:51:43;;;;;;;8.15;2.60;;;;;;;;;;6264868;28;20071;-73
2021/05/05 23:11:27;;;;;;;5.00;1.98;;;;;;;;;;6251880;28;20487;-73
2021/05/05 23:27:51;;;;;;;4.15;1.75;;;;;;;;;;6255900;28;20128;-72
2021/05/05 23:31:07;;;;;;;5.00;1.98;;;;;;;;;;6252157;28;20045;-75
